sensor_id;sensor_type;location;lat;lon;timestamp;temperature;humidity
49413;DHT22;35493;50.276;9.372;2022-10-16T00:00:04;15.50;91.40
49413;DHT22;35493;50.276;9.372;2022-10-16T00:02:37;15.50;91.40
49413;DHT22;35493;50.276;9.372;2022-10-16T00:05:07;15.40;91.30
49413;DHT22;35493;50.276;9.372;2022-10-16T00:07:34;15.40;91.30
49413;DHT22;35493;50.276;9.372;2022-10-16T00:10:01;15.40;91.30
49413;DHT22;35493;50.276;9.372;2022-10-16T00:12:30;15.40;91.30
49413;DHT22;35493;50.276;9.372;2022-10-16T00:14:57;15.40;91.20
49413;DHT22;35493;50.276;9.372;2022-10-16T00:17:24;15.30;91.20
49413;DHT22;35493;50.276;9.372;2022-10-16T00:19:51;15.30;91.20
49413;DHT22;35493;50.276;9.372;2022-10-16T00:22:19;15.30;91.20
49413;DHT22;35493;50.276;9.372;2022-10-16T00:24:46;15.30;91.20
49413;DHT22;35493;50.276;9.372;2022-10-16T00:27:13;15.30;91.30
49413;DHT22;35493;50.276;9.372;2022-10-16T00:29:40;15.40;91.30
49413;DHT22;35493;50.276;9.372;2022-10-16T00:32:06;15.30;91.40
49413;DHT22;35493;50.276;9.372;2022-10-16T00:34:33;15.30;91.40
49413;DHT22;35493;50.276;9.372;2022-10-16T00:37:00;15.30;91.40
49413;DHT22;35493;50.276;9.372;2022-10-16T00:39:29;15.40;91.40
49413;DHT22;35493;50.276;9.372;2022-10-16T00:41:56;15.30;91.50
49413;DHT22;35493;50.276;9.372;2022-10-16T00:44:49;15.40;91.50
49413;DHT22;35493;50.276;9.372;2022-10-16T00:47:21;15.30;91.60
49413;DHT22;35493;50.276;9.372;2022-10-16T00:49:50;15.30;91.70
49413;DHT22;35493;50.276;9.372;2022-10-16T00:52:19;15.30;91.60
49413;DHT22;35493;50.276;9.372;2022-10-16T00:54:49;15.40;91.60
49413;DHT22;35493;50.276;9.372;2022-10-16T00:57:16;15.30;91.60
49413;DHT22;35493;50.276;9.372;2022-10-16T00:59:43;15.40;91.30
49413;DHT22;35493;50.276;9.372;2022-10-16T01:02:13;15.40;91.30
49413;DHT22;35493;50.276;9.372;2022-10-16T01:04:43;15.40;91.40
49413;DHT22;35493;50.276;9.372;2022-10-16T01:07:14;15.40;91.50
49413;DHT22;35493;50.276;9.372;2022-10-16T01:09:52;15.40;91.50
49413;DHT22;35493;50.276;9.372;2022-10-16T01:12:33;15.30;91.50
49413;DHT22;35493;50.276;9.372;2022-10-16T01:15:09;15.30;91.60
49413;DHT22;35493;50.276;9.372;2022-10-16T01:17:43;15.30;91.70
49413;DHT22;35493;50.276;9.372;2022-10-16T01:20:20;15.30;91.30
49413;DHT22;35493;50.276;9.372;2022-10-16T01:22:59;15.30;91.20
49413;DHT22;35493;50.276;9.372;2022-10-16T01:25:49;15.30;91.40
49413;DHT22;35493;50.276;9.372;2022-10-16T01:28:22;15.30;91.50
49413;DHT22;35493;50.276;9.372;2022-10-16T01:30:53;15.30;91.40
49413;DHT22;35493;50.276;9.372;2022-10-16T01:33:26;15.30;91.50
49413;DHT22;35493;50.276;9.372;2022-10-16T01:36:03;15.30;91.70
49413;DHT22;35493;50.276;9.372;2022-10-16T01:38:34;15.30;91.70
49413;DHT22;35493;50.276;9.372;2022-10-16T01:41:07;15.20;91.70
49413;DHT22;35493;50.276;9.372;2022-10-16T01:43:42;15.30;91.60
49413;DHT22;35493;50.276;9.372;2022-10-16T01:46:10;15.30;91.70
49413;DHT22;35493;50.276;9.372;2022-10-16T01:48:39;15.30;91.70
49413;DHT22;35493;50.276;9.372;2022-10-16T01:51:09;15.30;91.80
49413;DHT22;35493;50.276;9.372;2022-10-16T01:53:37;15.30;91.80
49413;DHT22;35493;50.276;9.372;2022-10-16T01:56:08;15.30;91.70
49413;DHT22;35493;50.276;9.372;2022-10-16T01:58:41;15.30;91.40
49413;DHT22;35493;50.276;9.372;2022-10-16T02:01:11;15.30;91.40
49413;DHT22;35493;50.276;9.372;2022-10-16T02:03:40;15.30;91.60
49413;DHT22;35493;50.276;9.372;2022-10-16T02:06:08;15.30;91.60
49413;DHT22;35493;50.276;9.372;2022-10-16T02:08:36;15.30;91.70
49413;DHT22;35493;50.276;9.372;2022-10-16T02:11:04;15.30;91.80
49413;DHT22;35493;50.276;9.372;2022-10-16T02:13:34;15.30;91.50
49413;DHT22;35493;50.276;9.372;2022-10-16T02:16:04;15.30;91.80
49413;DHT22;35493;50.276;9.372;2022-10-16T02:18:32;15.30;91.70
49413;DHT22;35493;50.276;9.372;2022-10-16T02:21:01;15.30;91.50
49413;DHT22;35493;50.276;9.372;2022-10-16T02:23:35;15.30;91.60
49413;DHT22;35493;50.276;9.372;2022-10-16T02:26:06;15.30;91.60
49413;DHT22;35493;50.276;9.372;2022-10-16T02:28:40;15.30;91.60
49413;DHT22;35493;50.276;9.372;2022-10-16T02:31:11;15.30;91.50
49413;DHT22;35493;50.276;9.372;2022-10-16T02:33:42;15.30;91.50
49413;DHT22;35493;50.276;9.372;2022-10-16T02:36:10;15.30;91.60
49413;DHT22;35493;50.276;9.372;2022-10-16T02:38:38;15.20;91.60
49413;DHT22;35493;50.276;9.372;2022-10-16T02:41:05;15.20;91.70
49413;DHT22;35493;50.276;9.372;2022-10-16T02:43:33;15.20;91.70
49413;DHT22;35493;50.276;9.372;2022-10-16T02:46:00;15.20;91.60
49413;DHT22;35493;50.276;9.372;2022-10-16T02:48:29;15.20;91.60
49413;DHT22;35493;50.276;9.372;2022-10-16T02:50:55;15.20;91.70
49413;DHT22;35493;50.276;9.372;2022-10-16T02:53:22;15.20;91.70
49413;DHT22;35493;50.276;9.372;2022-10-16T02:55:49;15.20;91.70
49413;DHT22;35493;50.276;9.372;2022-10-16T02:58:16;15.20;91.70
49413;DHT22;35493;50.276;9.372;2022-10-16T03:00:44;15.20;91.80
49413;DHT22;35493;50.276;9.372;2022-10-16T03:03:13;15.20;91.80
49413;DHT22;35493;50.276;9.372;2022-10-16T03:05:43;15.20;91.80
49413;DHT22;35493;50.276;9.372;2022-10-16T03:08:11;15.20;91.90
49413;DHT22;35493;50.276;9.372;2022-10-16T03:10:38;15.10;91.90
49413;DHT22;35493;50.276;9.372;2022-10-16T03:13:05;15.10;91.90
49413;DHT22;35493;50.276;9.372;2022-10-16T03:15:31;15.20;91.80
49413;DHT22;35493;50.276;9.372;2022-10-16T03:17:59;15.20;91.90
49413;DHT22;35493;50.276;9.372;2022-10-16T03:20:26;15.10;91.90
49413;DHT22;35493;50.276;9.372;2022-10-16T03:22:54;15.10;91.90
49413;DHT22;35493;50.276;9.372;2022-10-16T03:25:21;15.10;91.90
49413;DHT22;35493;50.276;9.372;2022-10-16T03:27:48;15.20;91.90
49413;DHT22;35493;50.276;9.372;2022-10-16T03:30:15;15.10;91.80
49413;DHT22;35493;50.276;9.372;2022-10-16T03:32:43;15.20;91.80
49413;DHT22;35493;50.276;9.372;2022-10-16T03:35:10;15.10;91.90
49413;DHT22;35493;50.276;9.372;2022-10-16T03:37:40;15.10;91.90
49413;DHT22;35493;50.276;9.372;2022-10-16T03:40:09;15.20;91.90
49413;DHT22;35493;50.276;9.372;2022-10-16T03:42:38;15.20;91.90
49413;DHT22;35493;50.276;9.372;2022-10-16T03:45:06;15.20;91.90
49413;DHT22;35493;50.276;9.372;2022-10-16T03:47:38;15.20;91.80
49413;DHT22;35493;50.276;9.372;2022-10-16T03:50:07;15.20;91.90
49413;DHT22;35493;50.276;9.372;2022-10-16T03:52:33;15.10;92.00
49413;DHT22;35493;50.276;9.372;2022-10-16T03:55:02;15.20;91.60
49413;DHT22;35493;50.276;9.372;2022-10-16T03:57:30;15.20;91.80
49413;DHT22;35493;50.276;9.372;2022-10-16T03:59:57;15.20;91.80
49413;DHT22;35493;50.276;9.372;2022-10-16T04:02:24;15.20;91.60
49413;DHT22;35493;50.276;9.372;2022-10-16T04:04:51;15.20;91.90
49413;DHT22;35493;50.276;9.372;2022-10-16T04:07:18;15.20;91.90
49413;DHT22;35493;50.276;9.372;2022-10-16T04:09:45;15.20;92.10
49413;DHT22;35493;50.276;9.372;2022-10-16T04:12:13;15.10;92.20
49413;DHT22;35493;50.276;9.372;2022-10-16T04:14:41;15.10;92.20
49413;DHT22;35493;50.276;9.372;2022-10-16T04:17:08;15.10;92.10
49413;DHT22;35493;50.276;9.372;2022-10-16T04:19:36;15.10;92.10
49413;DHT22;35493;50.276;9.372;2022-10-16T04:22:03;15.20;92.10
49413;DHT22;35493;50.276;9.372;2022-10-16T04:24:30;15.20;92.00
49413;DHT22;35493;50.276;9.372;2022-10-16T04:26:57;15.10;92.00
49413;DHT22;35493;50.276;9.372;2022-10-16T04:29:24;15.10;92.00
49413;DHT22;35493;50.276;9.372;2022-10-16T04:31:52;15.10;92.00
49413;DHT22;35493;50.276;9.372;2022-10-16T04:34:19;15.10;92.10
49413;DHT22;35493;50.276;9.372;2022-10-16T04:36:47;15.10;92.10
49413;DHT22;35493;50.276;9.372;2022-10-16T04:39:14;15.10;92.10
49413;DHT22;35493;50.276;9.372;2022-10-16T04:41:43;15.10;92.00
49413;DHT22;35493;50.276;9.372;2022-10-16T04:44:10;15.10;92.10
49413;DHT22;35493;50.276;9.372;2022-10-16T04:46:39;15.10;92.10
49413;DHT22;35493;50.276;9.372;2022-10-16T04:49:10;15.10;92.10
49413;DHT22;35493;50.276;9.372;2022-10-16T04:51:39;15.10;92.10
49413;DHT22;35493;50.276;9.372;2022-10-16T04:54:06;15.10;92.00
49413;DHT22;35493;50.276;9.372;2022-10-16T04:56:33;15.10;92.10
49413;DHT22;35493;50.276;9.372;2022-10-16T04:59:05;15.10;92.10
49413;DHT22;35493;50.276;9.372;2022-10-16T05:01:32;15.10;92.20
49413;DHT22;35493;50.276;9.372;2022-10-16T05:03:59;15.10;92.20
49413;DHT22;35493;50.276;9.372;2022-10-16T05:06:28;15.10;92.20
49413;DHT22;35493;50.276;9.372;2022-10-16T05:08:55;15.10;92.20
49413;DHT22;35493;50.276;9.372;2022-10-16T05:11:22;15.10;92.10
49413;DHT22;35493;50.276;9.372;2022-10-16T05:13:48;15.10;92.00
49413;DHT22;35493;50.276;9.372;2022-10-16T05:16:15;15.20;92.10
49413;DHT22;35493;50.276;9.372;2022-10-16T05:18:42;15.10;92.10
49413;DHT22;35493;50.276;9.372;2022-10-16T05:21:09;15.10;92.00
49413;DHT22;35493;50.276;9.372;2022-10-16T05:23:38;15.10;92.00
49413;DHT22;35493;50.276;9.372;2022-10-16T05:26:04;15.10;92.10
49413;DHT22;35493;50.276;9.372;2022-10-16T05:28:31;15.10;92.10
49413;DHT22;35493;50.276;9.372;2022-10-16T05:30:58;15.10;91.90
49413;DHT22;35493;50.276;9.372;2022-10-16T05:33:26;15.10;91.60
49413;DHT22;35493;50.276;9.372;2022-10-16T05:35:53;15.10;91.40
49413;DHT22;35493;50.276;9.372;2022-10-16T05:38:19;15.20;91.30
49413;DHT22;35493;50.276;9.372;2022-10-16T05:40:52;15.20;91.50
49413;DHT22;35493;50.276;9.372;2022-10-16T05:43:19;15.20;91.70
49413;DHT22;35493;50.276;9.372;2022-10-16T05:45:54;15.10;92.00
49413;DHT22;35493;50.276;9.372;2022-10-16T05:48:20;15.10;91.90
49413;DHT22;35493;50.276;9.372;2022-10-16T05:50:47;15.10;91.90
49413;DHT22;35493;50.276;9.372;2022-10-16T05:53:15;15.10;92.00
49413;DHT22;35493;50.276;9.372;2022-10-16T05:55:41;15.10;92.00
49413;DHT22;35493;50.276;9.372;2022-10-16T05:58:10;15.10;92.10
49413;DHT22;35493;50.276;9.372;2022-10-16T06:00:36;15.10;91.70
49413;DHT22;35493;50.276;9.372;2022-10-16T06:03:03;15.10;91.70
49413;DHT22;35493;50.276;9.372;2022-10-16T06:05:32;15.10;91.70
49413;DHT22;35493;50.276;9.372;2022-10-16T06:08:01;15.10;91.30
49413;DHT22;35493;50.276;9.372;2022-10-16T06:10:29;15.20;91.20
49413;DHT22;35493;50.276;9.372;2022-10-16T06:12:56;15.20;91.60
49413;DHT22;35493;50.276;9.372;2022-10-16T06:15:24;15.10;91.80
49413;DHT22;35493;50.276;9.372;2022-10-16T06:17:51;15.20;91.70
49413;DHT22;35493;50.276;9.372;2022-10-16T06:20:18;15.20;91.90
49413;DHT22;35493;50.276;9.372;2022-10-16T06:22:45;15.10;92.10
49413;DHT22;35493;50.276;9.372;2022-10-16T06:25:12;15.20;92.00
49413;DHT22;35493;50.276;9.372;2022-10-16T06:27:39;15.20;92.00
49413;DHT22;35493;50.276;9.372;2022-10-16T06:30:07;15.20;91.40
49413;DHT22;35493;50.276;9.372;2022-10-16T06:32:36;15.20;91.40
49413;DHT22;35493;50.276;9.372;2022-10-16T06:35:03;15.20;91.30
49413;DHT22;35493;50.276;9.372;2022-10-16T06:37:30;15.20;91.60
49413;DHT22;35493;50.276;9.372;2022-10-16T06:39:57;15.20;91.30
49413;DHT22;35493;50.276;9.372;2022-10-16T06:42:25;15.20;91.30
49413;DHT22;35493;50.276;9.372;2022-10-16T06:44:52;15.30;91.20
49413;DHT22;35493;50.276;9.372;2022-10-16T06:47:19;15.30;91.40
49413;DHT22;35493;50.276;9.372;2022-10-16T06:49:47;15.30;91.70
49413;DHT22;35493;50.276;9.372;2022-10-16T06:52:14;15.30;91.90
49413;DHT22;35493;50.276;9.372;2022-10-16T06:54:41;15.30;92.00
49413;DHT22;35493;50.276;9.372;2022-10-16T06:57:09;15.30;92.00
49413;DHT22;35493;50.276;9.372;2022-10-16T06:59:36;15.30;92.10
49413;DHT22;35493;50.276;9.372;2022-10-16T07:02:03;15.30;92.10
49413;DHT22;35493;50.276;9.372;2022-10-16T07:04:30;15.30;92.10
49413;DHT22;35493;50.276;9.372;2022-10-16T07:07:00;15.40;92.20
49413;DHT22;35493;50.276;9.372;2022-10-16T07:09:27;15.30;92.10
49413;DHT22;35493;50.276;9.372;2022-10-16T07:11:54;15.30;91.50
49413;DHT22;35493;50.276;9.372;2022-10-16T07:14:21;15.30;91.40
49413;DHT22;35493;50.276;9.372;2022-10-16T07:16:49;15.30;91.80
49413;DHT22;35493;50.276;9.372;2022-10-16T07:19:15;15.30;92.00
49413;DHT22;35493;50.276;9.372;2022-10-16T07:21:44;15.40;92.10
49413;DHT22;35493;50.276;9.372;2022-10-16T07:24:14;15.30;91.20
49413;DHT22;35493;50.276;9.372;2022-10-16T07:26:42;15.30;91.10
49413;DHT22;35493;50.276;9.372;2022-10-16T07:29:12;15.40;91.20
49413;DHT22;35493;50.276;9.372;2022-10-16T07:31:41;15.50;91.70
49413;DHT22;35493;50.276;9.372;2022-10-16T07:34:08;15.50;91.80
49413;DHT22;35493;50.276;9.372;2022-10-16T07:36:36;15.50;91.50
49413;DHT22;35493;50.276;9.372;2022-10-16T07:39:03;15.50;91.80
49413;DHT22;35493;50.276;9.372;2022-10-16T07:41:32;15.50;92.20
49413;DHT22;35493;50.276;9.372;2022-10-16T07:44:03;15.50;92.20
49413;DHT22;35493;50.276;9.372;2022-10-16T07:46:30;15.60;92.00
49413;DHT22;35493;50.276;9.372;2022-10-16T07:48:59;15.60;91.50
49413;DHT22;35493;50.276;9.372;2022-10-16T07:51:27;15.60;91.80
49413;DHT22;35493;50.276;9.372;2022-10-16T07:53:54;15.60;91.90
49413;DHT22;35493;50.276;9.372;2022-10-16T07:56:21;15.60;91.90
49413;DHT22;35493;50.276;9.372;2022-10-16T07:58:51;15.70;92.00
49413;DHT22;35493;50.276;9.372;2022-10-16T08:01:19;15.70;91.30
49413;DHT22;35493;50.276;9.372;2022-10-16T08:03:47;15.70;91.00
49413;DHT22;35493;50.276;9.372;2022-10-16T08:06:15;15.60;90.70
49413;DHT22;35493;50.276;9.372;2022-10-16T08:08:43;15.70;91.90
49413;DHT22;35493;50.276;9.372;2022-10-16T08:11:10;15.70;92.10
49413;DHT22;35493;50.276;9.372;2022-10-16T08:13:37;15.70;91.60
49413;DHT22;35493;50.276;9.372;2022-10-16T08:16:06;15.80;91.80
49413;DHT22;35493;50.276;9.372;2022-10-16T08:18:35;15.70;91.30
49413;DHT22;35493;50.276;9.372;2022-10-16T08:21:02;15.80;92.20
49413;DHT22;35493;50.276;9.372;2022-10-16T08:23:30;15.80;91.90
49413;DHT22;35493;50.276;9.372;2022-10-16T08:26:03;15.70;91.80
49413;DHT22;35493;50.276;9.372;2022-10-16T08:28:30;15.70;91.70
49413;DHT22;35493;50.276;9.372;2022-10-16T08:31:06;15.70;91.30
49413;DHT22;35493;50.276;9.372;2022-10-16T08:33:34;15.70;92.30
49413;DHT22;35493;50.276;9.372;2022-10-16T08:36:02;15.70;92.30
49413;DHT22;35493;50.276;9.372;2022-10-16T08:38:29;15.80;92.30
49413;DHT22;35493;50.276;9.372;2022-10-16T08:41:09;15.70;92.20
49413;DHT22;35493;50.276;9.372;2022-10-16T08:43:50;15.70;92.20
49413;DHT22;35493;50.276;9.372;2022-10-16T08:46:35;15.80;92.30
49413;DHT22;35493;50.276;9.372;2022-10-16T08:49:10;15.80;92.40
49413;DHT22;35493;50.276;9.372;2022-10-16T08:51:38;15.90;92.40
49413;DHT22;35493;50.276;9.372;2022-10-16T08:54:15;15.90;92.50
49413;DHT22;35493;50.276;9.372;2022-10-16T08:56:45;15.90;92.10
49413;DHT22;35493;50.276;9.372;2022-10-16T08:59:14;15.90;92.40
49413;DHT22;35493;50.276;9.372;2022-10-16T09:01:46;15.90;92.50
49413;DHT22;35493;50.276;9.372;2022-10-16T09:04:54;15.90;92.60
49413;DHT22;35493;50.276;9.372;2022-10-16T09:07:34;16.00;92.60
49413;DHT22;35493;50.276;9.372;2022-10-16T09:10:15;16.00;92.40
49413;DHT22;35493;50.276;9.372;2022-10-16T09:12:50;16.00;92.30
49413;DHT22;35493;50.276;9.372;2022-10-16T09:15:27;16.00;92.40
49413;DHT22;35493;50.276;9.372;2022-10-16T09:18:01;16.00;92.30
49413;DHT22;35493;50.276;9.372;2022-10-16T09:20:39;16.00;92.30
49413;DHT22;35493;50.276;9.372;2022-10-16T09:23:18;16.00;92.50
49413;DHT22;35493;50.276;9.372;2022-10-16T09:25:49;16.10;92.60
49413;DHT22;35493;50.276;9.372;2022-10-16T09:28:17;16.10;92.70
49413;DHT22;35493;50.276;9.372;2022-10-16T09:30:45;16.10;92.50
49413;DHT22;35493;50.276;9.372;2022-10-16T09:33:17;16.20;92.70
49413;DHT22;35493;50.276;9.372;2022-10-16T09:35:46;16.20;92.80
49413;DHT22;35493;50.276;9.372;2022-10-16T09:38:22;16.20;92.90
49413;DHT22;35493;50.276;9.372;2022-10-16T09:40:49;16.20;92.90
49413;DHT22;35493;50.276;9.372;2022-10-16T09:43:22;16.20;92.80
49413;DHT22;35493;50.276;9.372;2022-10-16T09:45:55;16.20;92.70
49413;DHT22;35493;50.276;9.372;2022-10-16T09:48:26;16.20;92.90
49413;DHT22;35493;50.276;9.372;2022-10-16T09:50:58;16.20;92.90
49413;DHT22;35493;50.276;9.372;2022-10-16T09:53:37;16.30;92.80
49413;DHT22;35493;50.276;9.372;2022-10-16T09:56:05;16.30;92.80
49413;DHT22;35493;50.276;9.372;2022-10-16T09:58:33;16.30;92.80
49413;DHT22;35493;50.276;9.372;2022-10-16T10:01:00;16.40;93.00
49413;DHT22;35493;50.276;9.372;2022-10-16T10:03:38;16.40;93.10
49413;DHT22;35493;50.276;9.372;2022-10-16T10:06:16;16.40;93.00
49413;DHT22;35493;50.276;9.372;2022-10-16T10:08:58;16.40;92.90
49413;DHT22;35493;50.276;9.372;2022-10-16T10:11:49;16.50;92.60
49413;DHT22;35493;50.276;9.372;2022-10-16T10:14:25;16.60;92.40
49413;DHT22;35493;50.276;9.372;2022-10-16T10:17:13;16.70;92.40
49413;DHT22;35493;50.276;9.372;2022-10-16T10:19:46;16.70;92.40
49413;DHT22;35493;50.276;9.372;2022-10-16T10:22:22;16.70;92.70
49413;DHT22;35493;50.276;9.372;2022-10-16T10:24:57;16.70;92.60
49413;DHT22;35493;50.276;9.372;2022-10-16T10:27:34;16.70;92.60
49413;DHT22;35493;50.276;9.372;2022-10-16T10:30:13;16.80;92.50
49413;DHT22;35493;50.276;9.372;2022-10-16T10:32:48;16.70;92.60
49413;DHT22;35493;50.276;9.372;2022-10-16T10:35:22;16.80;92.60
49413;DHT22;35493;50.276;9.372;2022-10-16T10:38:10;16.80;92.70
49413;DHT22;35493;50.276;9.372;2022-10-16T10:40:45;16.80;92.70
49413;DHT22;35493;50.276;9.372;2022-10-16T10:43:29;16.80;92.60
49413;DHT22;35493;50.276;9.372;2022-10-16T10:46:02;16.90;92.60
49413;DHT22;35493;50.276;9.372;2022-10-16T10:48:54;17.00;92.40
49413;DHT22;35493;50.276;9.372;2022-10-16T10:51:31;17.10;92.00
49413;DHT22;35493;50.276;9.372;2022-10-16T10:54:07;17.20;92.10
49413;DHT22;35493;50.276;9.372;2022-10-16T10:56:43;17.10;92.20
49413;DHT22;35493;50.276;9.372;2022-10-16T10:59:54;17.10;92.30
49413;DHT22;35493;50.276;9.372;2022-10-16T11:02:27;17.10;92.50
49413;DHT22;35493;50.276;9.372;2022-10-16T11:05:15;17.10;92.70
49413;DHT22;35493;50.276;9.372;2022-10-16T11:07:52;17.10;92.60
49413;DHT22;35493;50.276;9.372;2022-10-16T11:10:24;17.20;92.60
49413;DHT22;35493;50.276;9.372;2022-10-16T11:12:57;17.20;92.30
49413;DHT22;35493;50.276;9.372;2022-10-16T11:15:29;17.30;92.10
49413;DHT22;35493;50.276;9.372;2022-10-16T11:18:02;17.40;91.80
49413;DHT22;35493;50.276;9.372;2022-10-16T11:20:33;17.40;91.70
49413;DHT22;35493;50.276;9.372;2022-10-16T11:23:10;17.40;91.70
49413;DHT22;35493;50.276;9.372;2022-10-16T11:25:40;17.40;91.50
49413;DHT22;35493;50.276;9.372;2022-10-16T11:28:11;17.40;91.70
49413;DHT22;35493;50.276;9.372;2022-10-16T11:30:44;17.40;91.70
49413;DHT22;35493;50.276;9.372;2022-10-16T11:33:32;17.50;91.90
49413;DHT22;35493;50.276;9.372;2022-10-16T11:36:05;17.60;91.80
49413;DHT22;35493;50.276;9.372;2022-10-16T11:38:41;17.70;91.40
49413;DHT22;35493;50.276;9.372;2022-10-16T11:41:15;17.70;90.30
49413;DHT22;35493;50.276;9.372;2022-10-16T11:43:51;17.70;89.90
49413;DHT22;35493;50.276;9.372;2022-10-16T11:46:21;17.70;90.00
49413;DHT22;35493;50.276;9.372;2022-10-16T11:48:55;17.80;90.20
49413;DHT22;35493;50.276;9.372;2022-10-16T11:51:31;17.80;89.70
49413;DHT22;35493;50.276;9.372;2022-10-16T11:54:07;17.80;90.00
49413;DHT22;35493;50.276;9.372;2022-10-16T11:56:38;17.80;90.10
49413;DHT22;35493;50.276;9.372;2022-10-16T11:59:10;17.80;90.30
49413;DHT22;35493;50.276;9.372;2022-10-16T12:01:46;17.90;89.60
49413;DHT22;35493;50.276;9.372;2022-10-16T12:04:19;17.90;90.10
49413;DHT22;35493;50.276;9.372;2022-10-16T12:06:50;17.90;89.10
49413;DHT22;35493;50.276;9.372;2022-10-16T12:09:24;17.90;89.70
49413;DHT22;35493;50.276;9.372;2022-10-16T12:11:52;17.90;89.40
49413;DHT22;35493;50.276;9.372;2022-10-16T12:14:32;18.10;89.30
49413;DHT22;35493;50.276;9.372;2022-10-16T12:17:01;18.10;89.40
49413;DHT22;35493;50.276;9.372;2022-10-16T12:19:31;18.10;89.70
49413;DHT22;35493;50.276;9.372;2022-10-16T12:22:00;18.10;89.20
49413;DHT22;35493;50.276;9.372;2022-10-16T12:24:34;18.10;89.70
49413;DHT22;35493;50.276;9.372;2022-10-16T12:27:04;18.10;89.70
49413;DHT22;35493;50.276;9.372;2022-10-16T12:29:36;18.10;88.90
49413;DHT22;35493;50.276;9.372;2022-10-16T12:32:18;18.10;88.80
49413;DHT22;35493;50.276;9.372;2022-10-16T12:34:50;18.20;89.30
49413;DHT22;35493;50.276;9.372;2022-10-16T12:37:21;18.20;88.70
49413;DHT22;35493;50.276;9.372;2022-10-16T12:39:52;18.20;88.60
49413;DHT22;35493;50.276;9.372;2022-10-16T12:42:22;18.20;88.70
49413;DHT22;35493;50.276;9.372;2022-10-16T12:44:49;18.20;88.70
49413;DHT22;35493;50.276;9.372;2022-10-16T12:47:24;18.20;89.20
49413;DHT22;35493;50.276;9.372;2022-10-16T12:50:01;18.20;89.00
49413;DHT22;35493;50.276;9.372;2022-10-16T12:52:35;18.20;89.10
49413;DHT22;35493;50.276;9.372;2022-10-16T12:55:11;18.20;89.30
49413;DHT22;35493;50.276;9.372;2022-10-16T12:57:47;18.20;89.20
49413;DHT22;35493;50.276;9.372;2022-10-16T13:00:24;18.20;88.60
49413;DHT22;35493;50.276;9.372;2022-10-16T13:03:16;18.30;89.00
49413;DHT22;35493;50.276;9.372;2022-10-16T13:05:57;18.30;89.10
49413;DHT22;35493;50.276;9.372;2022-10-16T13:08:45;18.30;88.50
49413;DHT22;35493;50.276;9.372;2022-10-16T13:11:19;18.30;89.00
49413;DHT22;35493;50.276;9.372;2022-10-16T13:14:02;18.20;89.00
49413;DHT22;35493;50.276;9.372;2022-10-16T13:16:38;18.20;88.80
49413;DHT22;35493;50.276;9.372;2022-10-16T13:19:16;18.20;89.00
49413;DHT22;35493;50.276;9.372;2022-10-16T13:21:54;18.20;88.90
49413;DHT22;35493;50.276;9.372;2022-10-16T13:24:38;18.30;88.60
49413;DHT22;35493;50.276;9.372;2022-10-16T13:27:13;18.30;88.70
49413;DHT22;35493;50.276;9.372;2022-10-16T13:29:44;18.40;88.90
49413;DHT22;35493;50.276;9.372;2022-10-16T13:32:12;18.30;88.80
49413;DHT22;35493;50.276;9.372;2022-10-16T13:34:45;18.30;88.10
49413;DHT22;35493;50.276;9.372;2022-10-16T13:37:19;18.40;88.40
49413;DHT22;35493;50.276;9.372;2022-10-16T13:39:49;18.40;88.80
49413;DHT22;35493;50.276;9.372;2022-10-16T13:42:22;18.30;88.70
49413;DHT22;35493;50.276;9.372;2022-10-16T13:44:51;18.30;88.90
49413;DHT22;35493;50.276;9.372;2022-10-16T13:47:20;18.30;88.80
49413;DHT22;35493;50.276;9.372;2022-10-16T13:49:58;18.30;88.90
49413;DHT22;35493;50.276;9.372;2022-10-16T13:52:25;18.30;88.90
49413;DHT22;35493;50.276;9.372;2022-10-16T13:54:52;18.30;88.80
49413;DHT22;35493;50.276;9.372;2022-10-16T13:57:22;18.30;88.90
49413;DHT22;35493;50.276;9.372;2022-10-16T13:59:50;18.30;89.20
49413;DHT22;35493;50.276;9.372;2022-10-16T14:02:21;18.30;89.40
49413;DHT22;35493;50.276;9.372;2022-10-16T14:04:49;18.30;89.20
49413;DHT22;35493;50.276;9.372;2022-10-16T14:07:22;18.30;89.30
49413;DHT22;35493;50.276;9.372;2022-10-16T14:09:50;18.20;89.30
49413;DHT22;35493;50.276;9.372;2022-10-16T14:12:19;18.30;89.40
49413;DHT22;35493;50.276;9.372;2022-10-16T14:14:48;18.30;89.40
49413;DHT22;35493;50.276;9.372;2022-10-16T14:17:18;18.30;89.50
49413;DHT22;35493;50.276;9.372;2022-10-16T14:19:46;18.30;89.60
49413;DHT22;35493;50.276;9.372;2022-10-16T14:22:29;18.30;89.60
49413;DHT22;35493;50.276;9.372;2022-10-16T14:24:56;18.30;89.60
49413;DHT22;35493;50.276;9.372;2022-10-16T14:27:29;18.30;89.30
49413;DHT22;35493;50.276;9.372;2022-10-16T14:30:13;18.30;89.20
49413;DHT22;35493;50.276;9.372;2022-10-16T14:32:40;18.30;89.10
49413;DHT22;35493;50.276;9.372;2022-10-16T14:35:23;18.30;89.00
49413;DHT22;35493;50.276;9.372;2022-10-16T14:37:52;18.30;89.30
49413;DHT22;35493;50.276;9.372;2022-10-16T14:40:20;18.30;89.30
49413;DHT22;35493;50.276;9.372;2022-10-16T14:42:51;18.30;88.90
49413;DHT22;35493;50.276;9.372;2022-10-16T14:45:20;18.20;89.20
49413;DHT22;35493;50.276;9.372;2022-10-16T14:47:52;18.20;89.30
49413;DHT22;35493;50.276;9.372;2022-10-16T14:50:19;18.20;89.20
49413;DHT22;35493;50.276;9.372;2022-10-16T14:52:46;18.20;89.20
49413;DHT22;35493;50.276;9.372;2022-10-16T14:55:14;18.20;89.30
49413;DHT22;35493;50.276;9.372;2022-10-16T14:57:43;18.20;89.70
49413;DHT22;35493;50.276;9.372;2022-10-16T15:00:18;18.10;90.20
49413;DHT22;35493;50.276;9.372;2022-10-16T15:02:46;18.10;90.50
49413;DHT22;35493;50.276;9.372;2022-10-16T15:05:16;18.10;90.70
49413;DHT22;35493;50.276;9.372;2022-10-16T15:07:43;18.10;91.00
49413;DHT22;35493;50.276;9.372;2022-10-16T15:10:11;18.10;91.00
49413;DHT22;35493;50.276;9.372;2022-10-16T15:12:38;18.10;91.20
49413;DHT22;35493;50.276;9.372;2022-10-16T15:15:26;18.10;91.40
49413;DHT22;35493;50.276;9.372;2022-10-16T15:17:56;18.10;91.40
49413;DHT22;35493;50.276;9.372;2022-10-16T15:20:24;18.10;91.50
49413;DHT22;35493;50.276;9.372;2022-10-16T15:22:51;18.10;91.60
49413;DHT22;35493;50.276;9.372;2022-10-16T15:25:27;18.10;91.50
49413;DHT22;35493;50.276;9.372;2022-10-16T15:27:55;18.10;91.60
49413;DHT22;35493;50.276;9.372;2022-10-16T15:30:24;18.10;91.20
49413;DHT22;35493;50.276;9.372;2022-10-16T15:32:54;18.10;91.60
49413;DHT22;35493;50.276;9.372;2022-10-16T15:35:21;18.10;91.60
49413;DHT22;35493;50.276;9.372;2022-10-16T15:37:48;18.10;91.70
49413;DHT22;35493;50.276;9.372;2022-10-16T15:40:16;18.00;91.60
49413;DHT22;35493;50.276;9.372;2022-10-16T15:42:43;17.90;91.70
49413;DHT22;35493;50.276;9.372;2022-10-16T15:45:12;17.90;91.90
49413;DHT22;35493;50.276;9.372;2022-10-16T15:47:40;17.90;91.80
49413;DHT22;35493;50.276;9.372;2022-10-16T15:50:10;17.90;91.70
49413;DHT22;35493;50.276;9.372;2022-10-16T15:52:37;17.90;91.40